Time;durP1;ratioP1;P1;durP2;ratioP2;P2;SDS_P1;SDS_P2;PMS_P1;PMS_P2;Temp;Humidity;BMP_temperature;BMP_pressure;BME280_temperature;BME280_humidity;BME280_pressure;Samples;Min_cycle;Max_cycle;Signal;HPM_P1;HPM_P2
2021/12/11 00:01:17;;;;;;;31.25;19.95;;;4.40;81.90;;;;;;4961049;28;20242;-74
2021/12/11 00:03:55;;;;;;;38.78;20.55;;;4.40;81.90;;;;;;4966615;28;20231;-73
2021/12/11 00:06:26;;;;;;;33.92;20.75;;;4.40;81.90;;;;;;4964908;28;20206;-73
2021/12/11 00:08:57;;;;;;;32.25;21.08;;;4.40;81.90;;;;;;4964895;28;20738;-72
2021/12/11 00:11:31;;;;;;;38.33;22.15;;;4.40;81.90;;;;;;4963580;28;20258;-73
2021/12/11 00:14:02;;;;;;;34.20;20.42;;;4.40;82.00;;;;;;4965476;28;20211;-72
2021/12/11 00:16:33;;;;;;;33.30;20.58;;;4.40;82.00;;;;;;4958640;28;20226;-72
2021/12/11 00:19:07;;;;;;;32.80;20.17;;;4.40;82.00;;;;;;4958017;28;20227;-72
2021/12/11 00:21:35;;;;;;;33.13;19.98;;;4.40;82.00;;;;;;4961463;28;20202;-71
2021/12/11 00:24:09;;;;;;;28.80;19.08;;;4.40;82.00;;;;;;4969105;28;20265;-72
2021/12/11 00:26:42;;;;;;;32.42;20.38;;;4.40;81.90;;;;;;4968761;28;20261;-71
2021/12/11 00:29:13;;;;;;;37.83;22.73;;;4.40;81.90;;;;;;4957618;28;20717;-72
2021/12/11 00:31:45;;;;;;;37.03;22.02;;;4.40;82.00;;;;;;4960794;28;20897;-72
2021/12/11 00:34:16;;;;;;;40.83;20.55;;;4.40;82.00;;;;;;4964720;28;20211;-73
2021/12/11 00:36:51;;;;;;;37.42;22.60;;;4.40;82.00;;;;;;4961728;28;20215;-74
2021/12/11 00:39:19;;;;;;;36.97;21.00;;;4.40;82.00;;;;;;4961484;28;20300;-73
2021/12/11 00:41:52;;;;;;;37.13;21.27;;;4.40;82.00;;;;;;4962834;28;20207;-73
2021/12/11 00:44:21;;;;;;;37.50;21.27;;;4.40;82.00;;;;;;4964586;28;20211;-72
2021/12/11 00:46:49;;;;;;;36.28;21.50;;;4.40;82.00;;;;;;4952065;28;20243;-72
2021/12/11 00:49:19;;;;;;;29.70;18.85;;;4.40;82.00;;;;;;4941840;28;20868;-72
2021/12/11 00:51:50;;;;;;;34.20;21.67;;;4.40;82.00;;;;;;4945499;28;20210;-73
2021/12/11 00:54:19;;;;;;;34.95;21.25;;;4.40;82.10;;;;;;4944652;28;20216;-71
2021/12/11 00:56:52;;;;;;;35.00;22.02;;;4.40;82.10;;;;;;4946303;28;20306;-72
2021/12/11 00:59:22;;;;;;;34.40;21.08;;;4.40;82.10;;;;;;4939049;28;20710;-73
2021/12/11 01:01:53;;;;;;;34.80;19.95;;;4.40;82.10;;;;;;4952207;28;20231;-73
2021/12/11 01:04:25;;;;;;;40.15;22.63;;;4.40;82.10;;;;;;4962242;28;20253;-73
2021/12/11 01:06:57;;;;;;;41.30;21.02;;;4.40;82.10;;;;;;4964805;28;20207;-73
2021/12/11 01:09:29;;;;;;;34.45;20.08;;;4.40;82.10;;;;;;4959124;28;20233;-74
2021/12/11 01:12:05;;;;;;;37.88;20.98;;;4.40;82.10;;;;;;4975308;28;20392;-74
2021/12/11 01:14:41;;;;;;;43.35;24.15;;;4.40;82.10;;;;;;4962282;28;20202;-74
2021/12/11 01:17:18;;;;;;;41.58;23.48;;;4.40;82.10;;;;;;4962461;28;21099;-73
2021/12/11 01:19:51;;;;;;;34.15;21.83;;;4.40;82.10;;;;;;4960759;28;20222;-72
2021/12/11 01:22:32;;;;;;;37.15;21.17;;;4.40;82.10;;;;;;4964741;28;20306;-73
2021/12/11 01:25:04;;;;;;;36.50;20.20;;;4.40;82.10;;;;;;4966289;28;20237;-72
2021/12/11 01:27:36;;;;;;;30.83;20.48;;;4.40;82.10;;;;;;4964865;28;20231;-73
2021/12/11 01:30:06;;;;;;;34.65;19.92;;;4.40;82.30;;;;;;4963793;28;20705;-72
2021/12/11 01:32:35;;;;;;;33.08;19.88;;;4.40;82.10;;;;;;4958550;28;20230;-72
2021/12/11 01:35:08;;;;;;;33.47;19.58;;;4.40;82.10;;;;;;4957818;28;20202;-73
2021/12/11 01:37:37;;;;;;;32.80;20.30;;;4.40;82.30;;;;;;4957622;28;20230;-74
2021/12/11 01:40:07;;;;;;;38.53;21.23;;;4.40;82.30;;;;;;4958485;28;20198;-74
2021/12/11 01:42:38;;;;;;;33.95;21.60;;;4.40;82.30;;;;;;4957425;28;20208;-74
2021/12/11 01:45:11;;;;;;;34.95;20.50;;;4.40;82.30;;;;;;4957387;28;20195;-72
2021/12/11 01:47:44;;;;;;;38.72;22.73;;;4.40;82.10;;;;;;4955751;28;20227;-71
2021/12/11 01:50:16;;;;;;;39.78;22.38;;;4.40;82.30;;;;;;4954025;28;20211;-73
2021/12/11 01:52:47;;;;;;;41.45;22.80;;;4.40;82.30;;;;;;4953288;28;20214;-73
2021/12/11 01:55:22;;;;;;;38.20;22.10;;;4.40;82.30;;;;;;4961898;28;20210;-73
2021/12/11 01:57:55;;;;;;;38.83;22.08;;;4.40;82.30;;;;;;4959690;28;20226;-73
2021/12/11 02:00:27;;;;;;;35.38;20.05;;;4.40;82.30;;;;;;4959480;28;20254;-73
2021/12/11 02:03:00;;;;;;;39.40;20.77;;;4.40;82.30;;;;;;4962929;28;20204;-73
2021/12/11 02:05:31;;;;;;;39.58;21.35;;;4.40;82.40;;;;;;4963477;28;20246;-74
2021/12/11 02:08:02;;;;;;;35.88;21.38;;;4.40;82.40;;;;;;4959432;28;20223;-72
2021/12/11 02:10:34;;;;;;;38.65;21.67;;;4.40;82.40;;;;;;4959971;28;20937;-74
2021/12/11 02:13:07;;;;;;;34.38;20.02;;;4.40;82.50;;;;;;4961759;28;20239;-73
2021/12/11 02:15:42;;;;;;;36.78;21.40;;;4.40;82.50;;;;;;4960562;28;20238;-74
2021/12/11 02:18:13;;;;;;;39.33;24.42;;;4.40;82.40;;;;;;4961727;28;20226;-73
2021/12/11 02:20:44;;;;;;;42.03;24.25;;;4.30;82.50;;;;;;4962391;28;20203;-74
2021/12/11 02:23:14;;;;;;;38.55;22.60;;;4.30;82.40;;;;;;4962559;28;20203;-72
2021/12/11 02:25:51;;;;;;;44.97;23.65;;;4.30;82.50;;;;;;4961624;28;20202;-72
2021/12/11 02:28:23;;;;;;;39.83;22.88;;;4.30;82.60;;;;;;4962841;28;20229;-73
2021/12/11 02:31:00;;;;;;;42.33;21.92;;;4.30;82.60;;;;;;4963847;28;20235;-73
2021/12/11 02:33:35;;;;;;;34.40;20.13;;;4.30;82.60;;;;;;4963669;28;20203;-74
2021/12/11 02:36:11;;;;;;;39.42;22.80;;;4.40;82.70;;;;;;4965289;28;20202;-72
2021/12/11 02:38:46;;;;;;;38.30;21.02;;;4.40;82.60;;;;;;4960391;28;20206;-73
2021/12/11 02:41:19;;;;;;;39.40;20.67;;;4.40;82.70;;;;;;4962541;28;20726;-73
2021/12/11 02:43:54;;;;;;;36.20;19.58;;;4.40;82.60;;;;;;4960190;28;20580;-73
2021/12/11 02:46:28;;;;;;;39.70;21.63;;;4.40;82.60;;;;;;4958990;28;20944;-74
2021/12/11 02:49:02;;;;;;;40.85;21.15;;;4.30;82.70;;;;;;4964517;28;20223;-71
2021/12/11 02:51:34;;;;;;;33.67;19.08;;;4.40;82.70;;;;;;4962599;28;20261;-73
2021/12/11 02:54:09;;;;;;;36.70;20.02;;;4.40;82.80;;;;;;4977521;28;20211;-74
2021/12/11 02:56:47;;;;;;;34.40;19.95;;;4.40;82.80;;;;;;4961781;28;20194;-72
2021/12/11 02:59:18;;;;;;;39.15;20.52;;;4.40;82.80;;;;;;4959283;28;20234;-72
2021/12/11 03:01:50;;;;;;;37.83;20.33;;;4.40;82.70;;;;;;4961583;28;20728;-74
2021/12/11 03:04:24;;;;;;;34.28;19.70;;;4.40;82.80;;;;;;4960225;28;20217;-73
2021/12/11 03:06:53;;;;;;;36.03;19.73;;;4.40;82.70;;;;;;4960740;28;20204;-73
2021/12/11 03:09:25;;;;;;;38.75;20.42;;;4.40;82.80;;;;;;4956705;28;20227;-74
2021/12/11 03:11:56;;;;;;;37.17;20.42;;;4.40;82.80;;;;;;4956551;28;20585;-74
2021/12/11 03:14:25;;;;;;;36.17;20.30;;;4.40;82.80;;;;;;4963900;28;20549;-72
2021/12/11 03:16:55;;;;;;;38.47;20.95;;;4.40;82.80;;;;;;4976419;28;21145;-74
2021/12/11 03:19:26;;;;;;;39.58;21.40;;;4.40;82.90;;;;;;4961173;28;20321;-73
2021/12/11 03:21:55;;;;;;;42.35;22.58;;;4.40;82.90;;;;;;4963898;28;20751;-73
2021/12/11 03:24:26;;;;;;;39.85;21.40;;;4.40;82.90;;;;;;4977610;28;20263;-74
2021/12/11 03:26:56;;;;;;;42.55;21.98;;;4.40;82.90;;;;;;4960307;28;20196;-72
2021/12/11 03:29:25;;;;;;;44.65;22.77;;;4.40;82.90;;;;;;4958846;28;20241;-73
2021/12/11 03:31:54;;;;;;;42.60;21.48;;;4.40;82.90;;;;;;4958407;28;20266;-73
2021/12/11 03:34:25;;;;;;;45.25;23.45;;;4.40;82.90;;;;;;4961056;28;20208;-74
2021/12/11 03:36:54;;;;;;;41.03;22.17;;;4.40;82.90;;;;;;4965460;28;20208;-74
2021/12/11 03:39:28;;;;;;;45.47;22.65;;;4.40;82.90;;;;;;4958911;28;20271;-74
2021/12/11 03:42:00;;;;;;;41.55;21.92;;;4.40;83.00;;;;;;4962652;28;20203;-73
2021/12/11 03:44:32;;;;;;;43.95;21.52;;;4.40;83.00;;;;;;4959775;28;20195;-73
2021/12/11 03:47:09;;;;;;;44.85;21.83;;;4.40;82.90;;;;;;4963283;28;20231;-73
2021/12/11 03:49:38;;;;;;;36.40;20.27;;;4.40;83.00;;;;;;4958061;28;20270;-72
2021/12/11 03:52:08;;;;;;;43.30;20.67;;;4.40;83.00;;;;;;4958994;28;20317;-73
2021/12/11 03:54:40;;;;;;;45.20;20.85;;;4.40;83.10;;;;;;4966440;28;20253;-73
2021/12/11 03:57:11;;;;;;;46.05;21.77;;;4.40;83.00;;;;;;4959674;28;20198;-73
2021/12/11 03:59:39;;;;;;;38.88;19.25;;;4.40;83.10;;;;;;4962383;28;20206;-73
2021/12/11 04:02:10;;;;;;;41.50;20.52;;;4.40;83.10;;;;;;4964418;28;20700;-74
2021/12/11 04:04:41;;;;;;;39.75;20.65;;;4.40;83.10;;;;;;4965307;28;20273;-73
2021/12/11 04:07:12;;;;;;;42.03;21.35;;;4.40;83.00;;;;;;4962496;28;20253;-72
2021/12/11 04:09:41;;;;;;;42.85;21.90;;;4.40;83.00;;;;;;4960958;28;20207;-72
2021/12/11 04:12:10;;;;;;;42.58;19.90;;;4.40;83.10;;;;;;4961819;28;20250;-73
2021/12/11 04:14:41;;;;;;;42.40;20.98;;;4.40;83.10;;;;;;4963156;28;20199;-73
2021/12/11 04:17:11;;;;;;;40.83;21.05;;;4.40;83.10;;;;;;4959442;28;21403;-73
2021/12/11 04:19:40;;;;;;;43.35;21.20;;;4.40;83.10;;;;;;4962031;28;20311;-71
2021/12/11 04:22:08;;;;;;;39.67;20.05;;;4.40;83.00;;;;;;4956762;28;20630;-74
2021/12/11 04:24:39;;;;;;;43.38;21.50;;;4.40;83.10;;;;;;4956956;28;21137;-74
2021/12/11 04:27:12;;;;;;;40.72;20.52;;;4.40;83.20;;;;;;4957202;28;20224;-72
2021/12/11 04:29:41;;;;;;;38.58;20.90;;;4.40;83.30;;;;;;4958739;28;20219;-72
2021/12/11 04:32:09;;;;;;;36.15;21.25;;;4.40;83.20;;;;;;4959198;28;20238;-72
2021/12/11 04:34:38;;;;;;;45.95;22.58;;;4.40;83.20;;;;;;4963017;28;20210;-73
2021/12/11 04:37:13;;;;;;;39.42;20.83;;;4.40;83.20;;;;;;4959821;28;20865;-73
2021/12/11 04:39:43;;;;;;;44.20;20.73;;;4.40;83.30;;;;;;4959443;28;20211;-72
2021/12/11 04:42:22;;;;;;;41.92;21.35;;;4.40;83.30;;;;;;4959214;28;20271;-71
2021/12/11 04:44:50;;;;;;;41.20;22.05;;;4.40;83.30;;;;;;4959012;28;20207;-73
2021/12/11 04:47:31;;;;;;;35.67;19.15;;;4.40;83.30;;;;;;4949464;28;20239;-73
2021/12/11 04:50:06;;;;;;;45.63;21.52;;;4.40;83.40;;;;;;4957051;28;20231;-73
2021/12/11 04:52:45;;;;;;;37.85;20.42;;;4.40;83.40;;;;;;4941729;28;20203;-72
2021/12/11 04:55:27;;;;;;;32.95;18.63;;;4.50;83.40;;;;;;4948659;28;20276;-71
2021/12/11 04:58:08;;;;;;;32.60;19.00;;;4.50;83.40;;;;;;4943722;28;20227;-72
2021/12/11 05:00:50;;;;;;;35.45;20.00;;;4.50;83.40;;;;;;4947451;28;20305;-72
2021/12/11 05:06:24;;;;;;;38.13;20.25;;;4.50;83.30;;;;;;4958296;28;20210;-71
2021/12/11 05:09:18;;;;;;;40.25;19.85;;;4.50;83.20;;;;;;4957011;28;20215;-74
2021/12/11 05:11:54;;;;;;;32.05;19.30;;;4.50;83.30;;;;;;4953876;28;20266;-73
2021/12/11 05:14:26;;;;;;;39.05;19.80;;;4.50;83.40;;;;;;4964265;28;20210;-73
2021/12/11 05:16:54;;;;;;;36.42;19.23;;;4.50;83.40;;;;;;4965666;28;20290;-72
2021/12/11 05:19:22;;;;;;;34.78;19.88;;;4.50;83.30;;;;;;4958282;28;20234;-73
2021/12/11 05:21:50;;;;;;;39.00;21.05;;;4.50;83.40;;;;;;4957396;28;20231;-73
2021/12/11 05:24:20;;;;;;;40.10;21.55;;;4.50;83.40;;;;;;4962139;28;20206;-73
2021/12/11 05:26:48;;;;;;;33.53;20.65;;;4.50;83.50;;;;;;4957208;28;20195;-72
2021/12/11 05:29:16;;;;;;;37.80;20.25;;;4.50;83.50;;;;;;4957611;28;20231;-73
2021/12/11 05:31:46;;;;;;;39.75;21.70;;;4.50;83.50;;;;;;4958652;28;20301;-72
2021/12/11 05:34:14;;;;;;;38.85;21.05;;;4.50;83.40;;;;;;4962856;28;20212;-73
2021/12/11 05:36:43;;;;;;;39.88;21.83;;;4.50;83.30;;;;;;4968389;28;20214;-72
2021/12/11 05:39:14;;;;;;;44.13;21.50;;;4.50;83.40;;;;;;4961848;28;20756;-72
2021/12/11 05:41:44;;;;;;;37.35;21.60;;;4.50;83.40;;;;;;4961075;28;20199;-72
2021/12/11 05:44:13;;;;;;;42.55;23.40;;;4.50;83.50;;;;;;4959229;28;20270;-72
2021/12/11 05:46:41;;;;;;;41.10;20.80;;;4.50;83.50;;;;;;4974890;28;20297;-72
2021/12/11 05:49:12;;;;;;;43.90;23.23;;;4.50;83.40;;;;;;4963894;28;20235;-72
2021/12/11 05:51:42;;;;;;;40.83;22.98;;;4.50;83.40;;;;;;4963137;28;20212;-71
2021/12/11 05:54:15;;;;;;;38.38;22.23;;;4.50;83.50;;;;;;4966406;28;20214;-71
2021/12/11 05:56:46;;;;;;;40.78;22.85;;;4.50;83.50;;;;;;4969438;28;20203;-73
2021/12/11 05:59:18;;;;;;;40.80;21.98;;;4.50;83.60;;;;;;4963780;28;20269;-72
2021/12/11 06:01:48;;;;;;;41.42;22.60;;;4.50;83.60;;;;;;4964153;28;21060;-71
2021/12/11 06:04:22;;;;;;;40.53;22.40;;;4.50;83.60;;;;;;4965231;28;20239;-72
2021/12/11 06:06:51;;;;;;;41.03;20.42;;;4.50;83.60;;;;;;4962009;28;20269;-71
2021/12/11 06:09:21;;;;;;;38.28;21.48;;;4.50;83.60;;;;;;4961829;28;20239;-73
2021/12/11 06:11:52;;;;;;;41.20;22.23;;;4.50;83.50;;;;;;4959755;28;20234;-72
2021/12/11 06:14:22;;;;;;;38.35;21.67;;;4.50;83.50;;;;;;4963380;28;20656;-72
2021/12/11 06:16:52;;;;;;;41.83;21.05;;;4.50;83.50;;;;;;4963670;28;20243;-72
2021/12/11 06:19:22;;;;;;;39.92;22.13;;;4.50;83.50;;;;;;4962671;28;20237;-73
2021/12/11 06:21:51;;;;;;;36.92;21.98;;;4.50;83.50;;;;;;4960497;28;20255;-72
2021/12/11 06:24:22;;;;;;;38.15;20.77;;;4.50;83.60;;;;;;4961652;28;20214;-72
2021/12/11 06:26:50;;;;;;;42.40;23.38;;;4.50;83.60;;;;;;4961690;28;20199;-72
2021/12/11 06:29:19;;;;;;;34.38;20.00;;;4.50;83.60;;;;;;4960982;28;20630;-72
2021/12/11 06:31:47;;;;;;;35.35;20.60;;;4.50;83.60;;;;;;4961635;28;20301;-73
2021/12/11 06:34:16;;;;;;;38.08;20.48;;;4.50;83.60;;;;;;4966283;28;20294;-71
2021/12/11 06:36:46;;;;;;;35.25;20.50;;;4.50;83.70;;;;;;4966158;28;20192;-71
2021/12/11 06:39:18;;;;;;;39.22;20.70;;;4.50;83.70;;;;;;4977707;28;20263;-72
2021/12/11 06:41:50;;;;;;;37.13;21.17;;;4.50;83.70;;;;;;4961720;28;20203;-72
2021/12/11 06:44:19;;;;;;;39.90;22.30;;;4.50;83.70;;;;;;4976271;28;20302;-72
2021/12/11 06:46:52;;;;;;;37.65;21.55;;;4.50;83.60;;;;;;4947012;28;20729;-73
2021/12/11 06:49:20;;;;;;;38.58;20.80;;;4.50;83.70;;;;;;4940255;28;20226;-71
2021/12/11 06:51:49;;;;;;;35.88;20.75;;;4.50;83.70;;;;;;4943458;28;21166;-72
2021/12/11 06:54:17;;;;;;;37.58;21.40;;;4.50;83.70;;;;;;4944641;28;20212;-73
2021/12/11 06:56:45;;;;;;;35.30;20.98;;;4.50;83.70;;;;;;4944605;28;20200;-73
2021/12/11 06:59:14;;;;;;;37.80;22.52;;;4.50;83.70;;;;;;4941625;28;20239;-73
2021/12/11 07:01:42;;;;;;;37.78;21.85;;;4.50;83.70;;;;;;4968777;28;20235;-73
2021/12/11 07:04:12;;;;;;;34.35;21.35;;;4.50;83.70;;;;;;4962705;28;20241;-72
2021/12/11 07:06:44;;;;;;;37.70;20.90;;;4.50;83.70;;;;;;4961253;28;20977;-72
2021/12/11 07:09:15;;;;;;;33.17;20.00;;;4.50;83.70;;;;;;4962580;28;20238;-73
2021/12/11 07:11:44;;;;;;;39.92;21.45;;;4.50;83.70;;;;;;4964327;28;20234;-72
2021/12/11 07:14:14;;;;;;;39.80;22.80;;;4.50;83.60;;;;;;4968635;28;20247;-73
2021/12/11 07:16:42;;;;;;;36.95;21.58;;;4.50;83.70;;;;;;4964557;28;20711;-73
2021/12/11 07:19:11;;;;;;;34.80;21.20;;;4.50;83.70;;;;;;4961801;28;20239;-72
2021/12/11 07:21:40;;;;;;;38.10;20.85;;;4.50;83.60;;;;;;4960078;28;20577;-73
2021/12/11 07:24:12;;;;;;;34.08;20.45;;;4.50;83.60;;;;;;4959722;28;20195;-72
2021/12/11 07:26:41;;;;;;;33.65;20.90;;;4.50;83.70;;;;;;4957490;28;20203;-72
2021/12/11 07:29:13;;;;;;;40.45;20.95;;;4.50;83.60;;;;;;4961951;28;20231;-72
2021/12/11 07:31:43;;;;;;;38.13;22.45;;;4.50;83.60;;;;;;4969756;28;20850;-73
2021/12/11 07:34:13;;;;;;;37.00;21.98;;;4.50;83.70;;;;;;4957973;28;20223;-72
2021/12/11 07:36:40;;;;;;;37.00;22.75;;;4.50;83.70;;;;;;4952786;28;20251;-72
2021/12/11 07:39:12;;;;;;;36.72;21.00;;;4.50;83.80;;;;;;4953876;28;20307;-73
2021/12/11 07:41:41;;;;;;;36.67;22.27;;;4.50;83.80;;;;;;4956519;28;20844;-71
2021/12/11 07:44:09;;;;;;;38.70;22.02;;;4.60;83.80;;;;;;4955054;28;20210;-71
2021/12/11 07:46:37;;;;;;;38.72;21.63;;;4.60;83.80;;;;;;4945500;28;20231;-71
2021/12/11 07:49:06;;;;;;;38.40;22.30;;;4.60;83.80;;;;;;4944566;28;20378;-71
2021/12/11 07:51:37;;;;;;;43.83;22.70;;;4.60;83.70;;;;;;4941853;28;20247;-72
2021/12/11 07:54:05;;;;;;;38.88;21.02;;;4.60;83.70;;;;;;4945154;28;20214;-71
2021/12/11 07:56:34;;;;;;;38.47;23.02;;;4.60;83.70;;;;;;4943525;28;20274;-72
2021/12/11 07:59:06;;;;;;;34.03;22.38;;;4.60;83.70;;;;;;4941110;28;20595;-72
2021/12/11 08:01:36;;;;;;;33.00;21.70;;;4.60;83.70;;;;;;4938947;28;20224;-71
2021/12/11 08:04:06;;;;;;;40.33;21.35;;;4.70;83.70;;;;;;4937887;28;20689;-72
2021/12/11 08:06:36;;;;;;;32.60;20.08;;;4.70;83.80;;;;;;4937929;28;20216;-72
2021/12/11 08:09:06;;;;;;;36.80;21.70;;;4.70;83.80;;;;;;4937906;28;20230;-71
2021/12/11 08:11:36;;;;;;;36.45;21.33;;;4.70;83.80;;;;;;4947078;28;20222;-71
2021/12/11 08:14:06;;;;;;;37.17;20.75;;;4.70;83.80;;;;;;4951067;28;20587;-72
2021/12/11 08:16:45;;;;;;;31.40;20.83;;;4.80;83.80;;;;;;4948308;28;20240;-71
2021/12/11 08:19:16;;;;;;;36.83;20.40;;;4.80;83.70;;;;;;4952026;28;20246;-72
2021/12/11 08:21:45;;;;;;;29.95;18.60;;;4.80;83.60;;;;;;4950603;28;20223;-71
2021/12/11 08:24:13;;;;;;;39.05;21.52;;;4.80;83.60;;;;;;4944343;28;20200;-72
2021/12/11 08:26:42;;;;;;;34.22;21.02;;;4.80;83.60;;;;;;4941063;28;20212;-72
2021/12/11 08:29:14;;;;;;;33.35;20.15;;;4.80;83.60;;;;;;4943131;28;20230;-71
2021/12/11 08:31:46;;;;;;;37.20;19.67;;;4.80;83.60;;;;;;4950487;28;20223;-71
2021/12/11 08:34:14;;;;;;;32.03;18.67;;;4.80;83.70;;;;;;4954649;28;20607;-72
2021/12/11 08:36:44;;;;;;;33.28;18.90;;;4.80;83.60;;;;;;4955144;28;20214;-71
2021/12/11 08:39:14;;;;;;;27.85;18.25;;;4.80;83.60;;;;;;4954054;28;20230;-71
2021/12/11 08:41:43;;;;;;;28.92;17.60;;;4.80;83.60;;;;;;4956237;28;20215;-72
2021/12/11 08:44:14;;;;;;;31.15;19.05;;;4.80;83.60;;;;;;4957577;28;20218;-72
2021/12/11 08:46:48;;;;;;;34.53;20.42;;;4.90;83.60;;;;;;4943707;28;20875;-72
2021/12/11 08:49:21;;;;;;;31.70;19.17;;;4.90;83.60;;;;;;4936415;28;20235;-72
2021/12/11 08:51:53;;;;;;;32.90;21.13;;;4.90;83.50;;;;;;4934473;28;20573;-72
2021/12/11 08:54:23;;;;;;;29.33;18.60;;;4.90;83.50;;;;;;4949341;28;20888;-72
2021/12/11 08:56:51;;;;;;;29.67;17.65;;;4.90;83.50;;;;;;4937323;28;20266;-72
2021/12/11 08:59:24;;;;;;;30.92;20.30;;;4.90;83.50;;;;;;4939064;28;20290;-72
2021/12/11 09:01:56;;;;;;;37.53;21.10;;;4.90;83.40;;;;;;4951363;28;20223;-71
2021/12/11 09:04:34;;;;;;;32.72;20.70;;;4.90;83.50;;;;;;4952072;28;20238;-71
2021/12/11 09:07:08;;;;;;;34.22;21.75;;;4.90;83.50;;;;;;4948436;28;20202;-71
2021/12/11 09:09:43;;;;;;;31.48;18.30;;;4.90;83.50;;;;;;4954874;28;20230;-71
2021/12/11 09:12:21;;;;;;;27.67;19.20;;;4.90;83.40;;;;;;4957450;28;20226;-70
2021/12/11 09:14:55;;;;;;;33.50;19.52;;;4.80;83.50;;;;;;4958842;28;20222;-72
2021/12/11 09:17:28;;;;;;;33.97;19.48;;;4.80;83.60;;;;;;4953872;28;22174;-72
2021/12/11 09:20:00;;;;;;;83.57;23.33;;;4.90;83.80;;;;;;4955554;28;20203;-71
2021/12/11 09:22:33;;;;;;;219.30;31.75;;;4.90;83.80;;;;;;4959145;28;20629;-71
2021/12/11 09:25:07;;;;;;;71.05;23.23;;;4.90;83.90;;;;;;4958272;28;20210;-70
2021/12/11 09:27:42;;;;;;;198.48;29.50;;;5.00;84.00;;;;;;4957126;28;20226;-71
2021/12/11 09:30:17;;;;;;;45.30;20.75;;;5.00;84.00;;;;;;4957922;28;20215;-72
2021/12/11 09:32:50;;;;;;;79.80;26.95;;;5.10;84.00;;;;;;4961636;28;20276;-71
2021/12/11 09:35:22;;;;;;;102.63;26.88;;;5.10;84.00;;;;;;4955460;28;20219;-71
2021/12/11 09:37:57;;;;;;;36.05;22.90;;;5.20;84.00;;;;;;4956199;28;20223;-70
2021/12/11 09:40:50;;;;;;;39.15;23.80;;;5.20;83.90;;;;;;4966324;28;20211;-70
2021/12/11 09:43:36;;;;;;;41.10;24.63;;;5.30;84.00;;;;;;4957409;28;20720;-71
2021/12/11 09:46:06;;;;;;;37.72;21.73;;;5.20;83.70;;;;;;4959129;28;20234;-71
2021/12/11 09:48:37;;;;;;;73.47;25.63;;;5.20;83.70;;;;;;4931838;28;20271;-71
2021/12/11 09:51:10;;;;;;;339.45;42.00;;;5.20;83.60;;;;;;4934725;28;20220;-71
2021/12/11 09:53:40;;;;;;;243.98;35.33;;;5.20;83.70;;;;;;4936943;28;20231;-70
2021/12/11 09:56:11;;;;;;;78.65;23.48;;;5.20;83.80;;;;;;4933966;28;20319;-71
2021/12/11 09:58:42;;;;;;;44.58;22.85;;;5.20;83.80;;;;;;4936720;28;20231;-71
2021/12/11 10:01:14;;;;;;;44.83;23.58;;;5.20;83.80;;;;;;4943873;28;20231;-70
2021/12/11 10:03:49;;;;;;;73.57;24.33;;;5.30;83.90;;;;;;4955338;28;20203;-71
2021/12/11 10:06:37;;;;;;;47.10;24.63;;;5.30;83.80;;;;;;4958833;28;20672;-70
2021/12/11 10:09:17;;;;;;;296.88;38.03;;;5.30;83.80;;;;;;4954320;28;20282;-71
2021/12/11 10:11:51;;;;;;;69.97;27.38;;;5.30;83.90;;;;;;4955858;28;20712;-71
2021/12/11 10:14:24;;;;;;;68.13;24.45;;;5.40;83.80;;;;;;4956711;28;20420;-70
2021/12/11 10:16:55;;;;;;;77.18;25.60;;;5.40;83.80;;;;;;4942457;28;20244;-69
2021/12/11 10:19:29;;;;;;;43.78;22.95;;;5.40;83.70;;;;;;4937702;28;20239;-70
2021/12/11 10:22:06;;;;;;;46.72;23.98;;;5.40;83.70;;;;;;4940373;28;20243;-70
2021/12/11 10:24:36;;;;;;;47.10;24.17;;;5.40;83.80;;;;;;4940152;28;21211;-70
2021/12/11 10:27:09;;;;;;;37.65;23.50;;;5.50;83.70;;;;;;4941575;28;20681;-70
2021/12/11 10:29:40;;;;;;;33.22;22.83;;;5.50;83.70;;;;;;4939998;28;20223;-70
2021/12/11 10:32:15;;;;;;;34.35;22.23;;;5.50;83.40;;;;;;4952550;28;20765;-70
2021/12/11 10:34:47;;;;;;;34.17;22.73;;;5.40;83.30;;;;;;4957492;28;20344;-70
2021/12/11 10:37:20;;;;;;;39.28;24.85;;;5.30;83.30;;;;;;4975723;28;20227;-71
2021/12/11 10:39:51;;;;;;;40.58;22.02;;;5.30;83.30;;;;;;4958607;28;20207;-71
2021/12/11 10:42:19;;;;;;;38.90;20.33;;;5.30;83.30;;;;;;4957961;28;20793;-70
2021/12/11 10:44:52;;;;;;;35.95;21.50;;;5.30;83.40;;;;;;4969752;28;20593;-71
2021/12/11 10:47:25;;;;;;;31.65;22.00;;;5.30;83.50;;;;;;4954042;28;20828;-70
2021/12/11 10:50:17;;;;;;;36.20;23.33;;;5.30;83.40;;;;;;4974242;28;20279;-70
2021/12/11 10:52:46;;;;;;;38.78;23.08;;;5.20;83.40;;;;;;4956894;28;20225;-71
2021/12/11 10:55:17;;;;;;;33.30;21.55;;;5.20;83.50;;;;;;4955660;28;20208;-70
2021/12/11 10:57:45;;;;;;;40.28;22.65;;;5.20;83.40;;;;;;4956068;28;20215;-70
2021/12/11 11:00:24;;;;;;;37.35;22.42;;;5.10;83.20;;;;;;4956422;28;20203;-70
2021/12/11 11:02:54;;;;;;;35.38;23.67;;;5.10;83.30;;;;;;4958269;28;20207;-70
2021/12/11 11:05:25;;;;;;;39.50;24.65;;;5.10;83.40;;;;;;4957186;28;20287;-70
2021/12/11 11:07:53;;;;;;;40.28;22.88;;;5.10;83.40;;;;;;4957242;28;20219;-70
2021/12/11 11:10:25;;;;;;;33.67;21.33;;;5.10;83.40;;;;;;4958790;28;20210;-70
2021/12/11 11:12:54;;;;;;;37.15;23.20;;;5.10;83.40;;;;;;4960274;28;20804;-70
2021/12/11 11:15:25;;;;;;;43.70;23.75;;;5.10;83.30;;;;;;4956766;28;20212;-70
2021/12/11 11:17:53;;;;;;;47.33;24.85;;;5.10;83.30;;;;;;4960619;28;20234;-70
2021/12/11 11:20:26;;;;;;;40.88;24.23;;;5.10;83.30;;;;;;4959208;28;20243;-70
2021/12/11 11:22:54;;;;;;;35.47;21.85;;;5.10;83.30;;;;;;4952387;28;20203;-71
2021/12/11 11:25:25;;;;;;;31.23;21.48;;;5.10;83.30;;;;;;4971346;28;20262;-70
2021/12/11 11:27:57;;;;;;;34.78;20.98;;;5.10;83.30;;;;;;4956265;28;20301;-71
2021/12/11 11:30:32;;;;;;;36.63;22.50;;;5.10;83.10;;;;;;4959033;28;20696;-71
2021/12/11 11:33:01;;;;;;;36.53;22.58;;;5.10;83.30;;;;;;4960717;28;20627;-71
2021/12/11 11:35:31;;;;;;;39.70;22.30;;;5.10;83.20;;;;;;4956357;28;20281;-70
2021/12/11 11:38:03;;;;;;;36.40;22.50;;;5.10;83.20;;;;;;4958171;28;20243;-71
2021/12/11 11:40:35;;;;;;;35.47;21.90;;;5.10;83.20;;;;;;4956952;28;20230;-70
2021/12/11 11:43:06;;;;;;;34.33;21.45;;;5.10;83.10;;;;;;4964389;28;20203;-76
2021/12/11 11:45:37;;;;;;;32.22;21.00;;;5.10;82.90;;;;;;4960158;28;20238;-72
2021/12/11 11:48:07;;;;;;;40.10;21.60;;;5.10;83.00;;;;;;4958880;28;20223;-77
2021/12/11 11:50:39;;;;;;;40.40;21.65;;;5.10;83.20;;;;;;4944589;28;20259;-70
2021/12/11 11:53:07;;;;;;;34.17;22.00;;;5.10;83.10;;;;;;4946612;28;20220;-72
2021/12/11 11:55:39;;;;;;;35.33;19.92;;;5.10;83.10;;;;;;4946252;28;20228;-70
2021/12/11 11:58:08;;;;;;;33.05;19.83;;;5.10;83.10;;;;;;4949672;28;20227;-72
2021/12/11 12:00:43;;;;;;;28.20;18.17;;;5.10;83.10;;;;;;4944239;28;20243;-72
2021/12/11 12:03:13;;;;;;;30.40;18.98;;;5.10;83.00;;;;;;4945226;28;20215;-69
2021/12/11 12:05:42;;;;;;;31.38;19.23;;;5.10;83.00;;;;;;4940452;28;20955;-73
2021/12/11 12:08:13;;;;;;;28.38;18.83;;;5.10;83.00;;;;;;4942739;28;20236;-75
2021/12/11 12:10:42;;;;;;;35.28;17.70;;;5.10;82.90;;;;;;4945850;28;20231;-74
2021/12/11 12:13:12;;;;;;;26.23;16.25;;;5.10;83.00;;;;;;4939954;28;20216;-74
2021/12/11 12:15:46;;;;;;;24.75;16.60;;;5.10;83.00;;;;;;4941692;28;20231;-71
2021/12/11 12:18:15;;;;;;;27.83;15.07;;;5.10;83.00;;;;;;4936730;28;20235;-70
2021/12/11 12:20:44;;;;;;;21.23;15.60;;;5.10;82.90;;;;;;4937827;28;20697;-70
2021/12/11 12:23:13;;;;;;;25.48;17.08;;;5.10;82.80;;;;;;4941328;28;20215;-70
2021/12/11 12:25:44;;;;;;;25.90;16.35;;;5.10;82.90;;;;;;4941672;28;20215;-70
2021/12/11 12:28:12;;;;;;;24.63;14.88;;;5.10;82.60;;;;;;4941434;28;20737;-70
2021/12/11 12:30:45;;;;;;;23.65;15.73;;;5.10;82.80;;;;;;4943936;28;20290;-70
2021/12/11 12:33:14;;;;;;;23.33;15.57;;;5.10;82.90;;;;;;4961418;28;20203;-70
2021/12/11 12:35:43;;;;;;;30.88;17.55;;;5.10;82.70;;;;;;4959860;28;20214;-70
2021/12/11 12:38:13;;;;;;;26.05;16.65;;;5.10;82.70;;;;;;4957490;28;20231;-70
2021/12/11 12:40:47;;;;;;;28.08;17.45;;;5.10;82.60;;;;;;4955620;28;20200;-69
2021/12/11 12:43:53;;;;;;;26.60;16.95;;;5.10;82.70;;;;;;4957433;28;20210;-70
2021/12/11 12:46:23;;;;;;;26.95;17.40;;;5.10;82.70;;;;;;4957864;28;20257;-70
2021/12/11 12:48:51;;;;;;;26.30;15.88;;;5.10;82.60;;;;;;4960363;28;20226;-70
2021/12/11 12:51:20;;;;;;;26.33;16.42;;;5.10;82.60;;;;;;4961084;28;20202;-70
2021/12/11 12:53:49;;;;;;;24.58;15.85;;;5.10;82.60;;;;;;4957016;28;20227;-70
2021/12/11 12:56:20;;;;;;;28.10;17.42;;;5.10;82.60;;;;;;4957860;28;20207;-70
2021/12/11 12:59:05;;;;;;;28.70;16.58;;;5.10;82.60;;;;;;4962698;28;20231;-73
2021/12/11 13:01:38;;;;;;;30.55;17.13;;;5.10;82.70;;;;;;4948052;28;20262;-68